Time;durP1;ratioP1;P1;durP2;ratioP2;P2;SDS_P1;SDS_P2;PMS_P1;PMS_P2;Temp;Humidity;BMP_temperature;BMP_pressure;BME280_temperature;BME280_humidity;BME280_pressure;Samples;Min_cycle;Max_cycle;Signal;HPM_P1;HPM_P2
2023/02/11 00:05:21;;;;;;;31.33;19.15;;;7.50;99.90;;;;;;6181040;23;20180;-85
2023/02/11 00:08:07;;;;;;;34.05;20.23;;;7.50;99.90;;;;;;6184605;23;20624;-84
2023/02/11 00:10:51;;;;;;;31.05;19.00;;;7.50;99.90;;;;;;6184257;23;20154;-84
2023/02/11 00:13:32;;;;;;;30.98;19.45;;;7.40;1.00;;;;;;6184267;23;20613;-84
2023/02/11 00:16:16;;;;;;;27.90;19.67;;;7.40;1.00;;;;;;6306150;22;20188;-84
2023/02/11 00:19:07;;;;;;;37.83;20.83;;;7.30;48.90;;;;;;6369241;22;20127;-85
2023/02/11 00:21:51;;;;;;;35.47;20.25;;;7.30;99.90;;;;;;6307474;22;20146;-85
2023/02/11 00:24:29;;;;;;;35.35;19.90;;;7.30;99.90;;;;;;6337528;22;20165;-84
2023/02/11 00:27:12;;;;;;;33.67;18.98;;;7.30;1.00;;;;;;6341277;22;20142;-84
2023/02/11 00:29:59;;;;;;;34.40;20.90;;;7.30;1.00;;;;;;6339008;22;20157;-85
2023/02/11 00:32:42;;;;;;;27.50;18.40;;;7.20;1.00;;;;;;6346166;22;20768;-85
2023/02/11 00:35:24;;;;;;;32.17;19.92;;;7.20;99.90;;;;;;6340828;22;20233;-84
2023/02/11 00:41:41;;;;;;;;;;;;;;;;;;;;;
2023/02/11 00:44:53;;;;;;;31.90;20.33;;;7.10;99.90;;;;;;6367190;22;20246;-85
2023/02/11 00:47:42;;;;;;;32.90;20.38;;;7.10;1.00;;;;;;6340694;22;20154;-83
2023/02/11 00:50:59;;;;;;;35.78;21.73;;;7.10;1.00;;;;;;6367590;22;20230;-84
2023/02/11 00:54:21;;;;;;;36.50;22.13;;;7.00;5.20;;;;;;6327713;22;20146;-84
2023/02/11 00:57:21;;;;;;;31.98;20.63;;;7.00;99.90;;;;;;6338999;22;20181;-85
2023/02/11 01:00:00;;;;;;;35.92;20.90;;;6.90;99.90;;;;;;6290365;22;20155;-85
2023/02/11 01:03:20;;;;;;;42.95;22.73;;;6.90;1.00;;;;;;6367700;22;20123;-84
2023/02/11 01:06:07;;;;;;;38.38;22.00;;;6.90;1.00;;;;;;6177277;22;20185;-85
2023/02/11 01:08:51;;;;;;;42.33;21.70;;;6.90;99.90;;;;;;6368222;22;20161;-84
2023/02/11 01:11:57;;;;;;;37.38;23.23;;;6.90;99.90;;;;;;6340352;22;20189;-84
2023/02/11 01:17:43;;;;;;;40.03;23.42;;;6.90;99.90;;;;;;6261280;22;20195;-84
2023/02/11 01:20:31;;;;;;;42.17;23.67;;;7.00;99.90;;;;;;6304293;22;20616;-85
2023/02/11 01:23:52;;;;;;;39.20;22.83;;;7.00;99.90;;;;;;6306362;22;20143;-85
2023/02/11 01:33:20;;;;;;;35.60;22.48;;;7.00;99.90;;;;;;6210267;23;20160;-84
2023/02/11 01:36:14;;;;;;;41.92;23.27;;;7.00;99.90;;;;;;6175052;23;20236;-84
2023/02/11 01:38:52;;;;;;;44.90;25.17;;;7.00;99.90;;;;;;6257840;22;20684;-85
2023/02/11 01:46:27;;;;;;;42.17;23.35;;;7.00;1.00;;;;;;6338057;22;20147;-84
2023/02/11 01:49:06;;;;;;;52.63;23.27;;;7.00;1.00;;;;;;6303626;22;20162;-84
2023/02/11 01:51:54;;;;;;;35.42;21.25;;;7.00;1.00;;;;;;6262048;22;20154;-84
2023/02/11 01:58:03;;;;;;;33.58;20.15;;;7.00;1.00;;;;;;6337831;22;20205;-84
2023/02/11 02:00:47;;;;;;;36.20;21.80;;;6.90;1.00;;;;;;6310078;22;20147;-85
2023/02/11 02:04:09;;;;;;;39.25;21.27;;;7.00;1.00;;;;;;6310594;22;20169;-84
2023/02/11 02:08:23;;;;;;;30.25;19.40;;;7.00;1.00;;;;;;6314973;22;20182;-84
2023/02/11 02:10:21;;;;;;;31.77;20.65;;;7.00;1.00;;;;;;6238575;22;20159;-84
2023/02/11 02:13:42;;;;;;;35.20;19.60;;;6.90;10.50;;;;;;6309013;22;20163;-84
2023/02/11 02:16:54;;;;;;;;;;;;;;;;;;;;;
2023/02/11 02:23:36;;;;;;;;;;;;;;;;;;;;;
2023/02/11 02:26:40;;;;;;;;;;;;;;;;;;;;;
2023/02/11 02:33:25;;;;;;;;;;;;;;;;;;;;;
2023/02/11 02:39:37;;;;;;;36.40;20.23;;;6.60;99.90;;;;;;6213096;23;20495;-84
2023/02/11 02:42:23;;;;;;;37.47;20.83;;;6.60;99.90;;;;;;6315254;22;20177;-84
2023/02/11 02:45:51;;;;;;;34.15;20.70;;;6.60;99.90;;;;;;6320084;22;20270;-85
2023/02/11 02:48:52;;;;;;;;;;;;;;;;;;;;;
2023/02/11 02:55:19;;;;;;;35.33;19.60;;;6.60;99.90;;;;;;6268292;22;20171;-84
2023/02/11 02:58:40;;;;;;;;;;;;;;;;;;;;;
2023/02/11 03:05:34;;;;;;;34.88;20.05;;;6.60;1.00;;;;;;6128446;23;20187;-84
2023/02/11 03:11:46;;;;;;;35.45;18.33;;;6.60;1.00;;;;;;6306201;22;20173;-84
2023/02/11 03:18:17;;;;;;;29.80;18.48;;;6.70;1.00;;;;;;6289843;22;20659;-84
2023/02/11 03:21:18;;;;;;;34.53;17.60;;;6.70;1.00;;;;;;6277370;22;20154;-84
2023/02/11 03:24:41;;;;;;;28.92;17.63;;;6.80;1.00;;;;;;6338432;22;20135;-84
2023/02/11 03:27:51;;;;;;;;;;;;;;;;;;;;;
2023/02/11 03:31:04;;;;;;;33.33;17.45;;;6.90;1.00;;;;;;6337853;22;20230;-85
2023/02/11 03:34:14;;;;;;;30.35;17.40;;;6.90;1.00;;;;;;6295234;22;20151;-84
2023/02/11 03:50:38;;;;;;;36.60;16.42;;;7.00;1.00;;;;;;6221205;23;20138;-84
2023/02/11 03:54:08;;;;;;;36.53;18.60;;;7.00;1.00;;;;;;6304186;22;20156;-85
2023/02/11 03:57:44;;;;;;;;;;;;;;;;;;;;;
2023/02/11 04:00:14;;;;;;;28.58;17.50;;;7.00;1.00;;;;;;6227073;23;20555;-85
2023/02/11 04:10:52;;;;;;;36.00;20.17;;;7.00;1.00;;;;;;6105453;23;20155;-84
2023/02/11 04:13:52;;;;;;;36.20;17.38;;;7.00;1.00;;;;;;6082360;23;20523;-84
2023/02/11 04:16:35;;;;;;;35.65;18.77;;;7.00;1.00;;;;;;6179812;22;20191;-84
2023/02/11 04:19:53;;;;;;;;;;;;;;;;;;;;;
2023/02/11 04:26:52;;;;;;;29.85;18.17;;;7.00;1.00;;;;;;6294203;22;20179;-84
2023/02/11 04:44:18;;;;;;;;;;;;;;;;;;;;;
2023/02/11 04:47:55;;;;;;;;;;;;;;;;;;;;;
2023/02/11 04:54:09;;;;;;;38.67;20.00;;;7.00;99.90;;;;;;6172135;23;20728;-84
2023/02/11 05:00:20;;;;;;;37.65;20.52;;;6.90;99.90;;;;;;6257662;22;20156;-84
2023/02/11 05:03:44;;;;;;;41.10;22.70;;;6.90;99.90;;;;;;6305688;22;20143;-85
2023/02/11 05:10:56;;;;;;;48.80;23.55;;;6.90;99.90;;;;;;6181167;23;20154;-84
2023/02/11 05:13:59;;;;;;;37.65;21.95;;;6.90;99.90;;;;;;6239853;22;20152;-84
2023/02/11 05:16:42;;;;;;;38.08;21.50;;;6.90;99.90;;;;;;6233426;22;20187;-85
2023/02/11 05:23:25;;;;;;;37.78;21.08;;;6.80;99.90;;;;;;6272766;22;20550;-85
2023/02/11 05:26:17;;;;;;;51.95;24.35;;;6.80;99.90;;;;;;6246723;22;20176;-84
2023/02/11 05:35:51;;;;;;;50.35;23.15;;;6.80;99.90;;;;;;6265169;22;20198;-84
2023/02/11 05:38:32;;;;;;;47.97;25.55;;;6.80;99.90;;;;;;6273138;22;20267;-85
2023/02/11 05:41:56;;;;;;;;;;;;;;;;;;;;;
2023/02/11 05:51:26;;;;;;;40.20;21.52;;;6.80;99.90;;;;;;6272749;22;20163;-84
2023/02/11 05:54:56;;;;;;;39.85;23.38;;;6.80;99.90;;;;;;6334774;22;20295;-85
2023/02/11 05:58:21;;;;;;;44.15;22.30;;;6.80;1.00;;;;;;6337478;22;20279;-85
2023/02/11 06:01:04;;;;;;;47.50;24.67;;;6.90;1.00;;;;;;6310857;22;20147;-84
2023/02/11 06:07:16;;;;;;;43.47;24.00;;;6.90;1.00;;;;;;6272164;22;20273;-84
2023/02/11 06:10:46;;;;;;;;;;;;;;;;;;;;;
2023/02/11 06:13:24;;;;;;;41.63;22.83;;;6.80;1.00;;;;;;6329004;22;20162;-84
2023/02/11 06:16:10;;;;;;;49.88;26.08;;;6.80;1.00;;;;;;6310549;22;20511;-84
2023/02/11 06:18:49;;;;;;;42.78;23.20;;;6.90;1.00;;;;;;6241812;23;20191;-84
2023/02/11 06:21:29;;;;;;;45.95;24.92;;;6.90;1.00;;;;;;6156002;22;20160;-84
2023/02/11 06:24:15;;;;;;;57.97;24.60;;;6.90;1.00;;;;;;6338149;22;20556;-85
2023/02/11 06:34:21;;;;;;;48.03;24.38;;;6.90;1.00;;;;;;6271171;22;20166;-85
2023/02/11 06:37:10;;;;;;;47.83;23.60;;;6.90;1.00;;;;;;6309608;22;20270;-84
2023/02/11 06:44:00;;;;;;;49.97;23.55;;;6.90;1.00;;;;;;6121640;23;20159;-84
2023/02/11 06:47:16;;;;;;;48.97;25.35;;;6.90;1.00;;;;;;6209898;23;20200;-85
2023/02/11 06:57:33;;;;;;;51.17;25.83;;;7.00;1.00;;;;;;6269579;22;20523;-84
2023/02/11 06:59:58;;;;;;;49.58;24.88;;;7.00;1.00;;;;;;6217521;22;20185;-84
2023/02/11 07:02:27;;;;;;;52.37;24.43;;;7.00;1.00;;;;;;6277835;22;20159;-83
2023/02/11 07:05:09;;;;;;;58.80;25.38;;;7.10;1.00;;;;;;6280766;22;20178;-84
2023/02/11 07:07:59;;;;;;;53.58;26.42;;;7.20;1.00;;;;;;6307878;22;20147;-84
2023/02/11 07:10:29;;;;;;;53.65;24.88;;;7.20;1.00;;;;;;6307012;22;20691;-84
2023/02/11 07:13:19;;;;;;;60.28;26.63;;;7.30;1.00;;;;;;6283616;22;20248;-83
2023/02/11 07:15:50;;;;;;;47.67;25.10;;;7.30;1.00;;;;;;6318556;22;20168;-83
2023/02/11 07:18:16;;;;;;;57.33;24.45;;;7.30;1.00;;;;;;6285097;22;20152;-84
2023/02/11 07:20:50;;;;;;;54.40;26.97;;;7.30;1.00;;;;;;6280966;22;20582;-84
2023/02/11 07:23:25;;;;;;;53.00;27.25;;;7.30;1.00;;;;;;6279740;22;20382;-83
2023/02/11 07:26:00;;;;;;;52.05;24.95;;;7.30;1.00;;;;;;6280680;22;20188;-83
2023/02/11 07:28:55;;;;;;;60.17;25.48;;;7.30;1.00;;;;;;6280798;22;20155;-83
2023/02/11 07:31:31;;;;;;;51.47;26.15;;;7.30;1.00;;;;;;6279056;22;20140;-83
2023/02/11 07:34:01;;;;;;;47.65;26.75;;;7.30;1.00;;;;;;6279954;22;20147;-83
2023/02/11 07:36:30;;;;;;;51.95;26.33;;;7.30;1.00;;;;;;6279216;22;20326;-83
2023/02/11 07:39:26;;;;;;;50.25;27.42;;;7.30;1.00;;;;;;6308050;22;20789;-83
2023/02/11 07:41:55;;;;;;;79.18;31.30;;;7.40;1.00;;;;;;6308588;22;20484;-84
2023/02/11 07:44:43;;;;;;;60.20;27.48;;;7.40;1.00;;;;;;6280838;22;20156;-82
2023/02/11 07:47:17;;;;;;;54.08;26.73;;;7.40;1.00;;;;;;6279729;22;20242;-85
2023/02/11 07:53:55;;;;;;;;;;;;;;;;;;;;;
2023/02/11 07:56:24;;;;;;;65.88;26.73;;;7.40;1.00;;;;;;6326497;22;20175;-82
2023/02/11 07:59:37;;;;;;;54.47;26.77;;;7.40;1.00;;;;;;6327705;22;20203;-83
2023/02/11 08:02:54;;;;;;;55.47;25.88;;;7.40;1.00;;;;;;6327505;22;20197;-82
2023/02/11 08:05:51;;;;;;;53.60;26.15;;;7.50;1.00;;;;;;6299557;22;20176;-82
2023/02/11 08:08:56;;;;;;;;;;;;;;;;;;;;;
2023/02/11 08:11:30;;;;;;;57.67;26.85;;;7.50;1.00;;;;;;6327066;22;20136;-83
2023/02/11 08:14:23;;;;;;;55.95;26.63;;;7.50;1.00;;;;;;6298511;22;20182;-83
2023/02/11 08:16:52;;;;;;;54.55;26.35;;;7.50;1.00;;;;;;6299979;22;20183;-83
2023/02/11 08:19:32;;;;;;;52.78;27.00;;;7.50;1.00;;;;;;6299334;22;20167;-82
2023/02/11 08:22:20;;;;;;;67.03;28.38;;;7.60;1.00;;;;;;6327119;22;20132;-83
2023/02/11 08:24:48;;;;;;;46.42;24.90;;;7.60;1.00;;;;;;6299540;22;20147;-82
2023/02/11 08:27:14;;;;;;;58.15;27.65;;;7.60;1.00;;;;;;6301307;22;20175;-82
2023/02/11 08:29:44;;;;;;;70.33;27.53;;;7.60;1.00;;;;;;6329653;22;20211;-83
2023/02/11 08:32:24;;;;;;;64.72;28.90;;;7.70;1.00;;;;;;6302176;22;20151;-82
2023/02/11 08:35:11;;;;;;;63.45;29.55;;;7.70;1.00;;;;;;6327262;22;20171;-83
2023/02/11 08:37:44;;;;;;;52.47;27.25;;;7.70;1.00;;;;;;6276178;22;20191;-82
2023/02/11 08:40:10;;;;;;;53.50;28.40;;;7.70;1.00;;;;;;6301363;22;20151;-83
2023/02/11 08:42:43;;;;;;;54.93;27.70;;;7.80;1.00;;;;;;6327157;22;20167;-82
2023/02/11 08:45:20;;;;;;;61.38;28.60;;;7.80;1.00;;;;;;6334315;22;20170;-82
2023/02/11 08:47:49;;;;;;;57.20;29.02;;;7.80;1.00;;;;;;6332362;22;20155;-83
2023/02/11 08:50:15;;;;;;;59.65;29.67;;;7.80;1.00;;;;;;6332419;22;20151;-82
2023/02/11 08:52:51;;;;;;;57.17;25.70;;;7.80;1.00;;;;;;6357514;22;20586;-82
2023/02/11 08:55:16;;;;;;;63.58;30.50;;;7.80;1.00;;;;;;6359642;22;20167;-82
2023/02/11 08:58:06;;;;;;;66.90;29.37;;;7.90;1.00;;;;;;6330807;22;20190;-83
2023/02/11 09:00:34;;;;;;;61.70;30.05;;;7.90;1.00;;;;;;6332432;22;20147;-82
2023/02/11 09:03:08;;;;;;;60.85;28.27;;;7.90;1.00;;;;;;6332745;22;20135;-82
2023/02/11 09:05:41;;;;;;;56.03;26.95;;;7.90;1.00;;;;;;6331767;22;20180;-82
2023/02/11 09:08:06;;;;;;;59.72;26.92;;;7.90;1.00;;;;;;6332575;22;20165;-83
2023/02/11 09:10:52;;;;;;;59.83;27.73;;;7.90;1.00;;;;;;6357060;22;20162;-83
2023/02/11 09:13:23;;;;;;;59.83;27.45;;;7.90;1.00;;;;;;6329926;22;20147;-82
2023/02/11 09:15:58;;;;;;;;;;;;;;;;;;;;;
2023/02/11 09:18:25;;;;;;;66.35;30.35;;;7.90;1.00;;;;;;6360870;22;20122;-82
2023/02/11 09:21:00;;;;;;;57.88;29.52;;;7.90;1.00;;;;;;6360358;22;20170;-83
2023/02/11 09:23:46;;;;;;;64.72;30.75;;;7.90;1.00;;;;;;6333429;22;20168;-82
2023/02/11 09:26:22;;;;;;;62.45;27.42;;;7.90;1.00;;;;;;6360368;22;20177;-82
2023/02/11 09:28:55;;;;;;;59.15;27.63;;;7.90;1.00;;;;;;6360721;22;20146;-82
2023/02/11 09:31:24;;;;;;;54.88;26.08;;;7.90;1.00;;;;;;6358478;22;20134;-82
2023/02/11 09:33:52;;;;;;;70.35;28.80;;;7.90;1.00;;;;;;6331540;22;20222;-82
2023/02/11 09:36:42;;;;;;;61.47;27.58;;;7.90;1.00;;;;;;6360332;22;20183;-82
2023/02/11 09:39:16;;;;;;;53.85;26.65;;;7.90;1.00;;;;;;6359609;22;20224;-82
2023/02/11 09:41:48;;;;;;;51.03;26.70;;;7.90;1.00;;;;;;6333881;22;20140;-82
2023/02/11 09:44:26;;;;;;;49.88;26.50;;;7.90;1.00;;;;;;6332975;22;20206;-83
2023/02/11 09:47:05;;;;;;;55.22;28.08;;;7.90;1.00;;;;;;6357720;22;20182;-82
2023/02/11 09:49:34;;;;;;;54.15;27.50;;;7.90;1.00;;;;;;6354189;22;20155;-81
2023/02/11 09:53:01;;;;;;;52.92;27.15;;;8.00;1.00;;;;;;6330407;22;20212;-83
2023/02/11 09:55:38;;;;;;;58.78;26.98;;;8.00;1.00;;;;;;6245997;23;20220;-83
2023/02/11 09:58:13;;;;;;;61.70;26.65;;;8.00;1.00;;;;;;6348064;22;20192;-82
2023/02/11 10:00:49;;;;;;;59.50;27.67;;;8.00;1.00;;;;;;6359335;22;20135;-82
2023/02/11 10:03:37;;;;;;;52.05;24.98;;;8.00;1.00;;;;;;6329764;22;20139;-84
2023/02/11 10:06:28;;;;;;;63.78;29.45;;;8.00;1.00;;;;;;6326738;22;20178;-82
2023/02/11 10:09:27;;;;;;;68.72;31.20;;;8.00;1.00;;;;;;6327726;22;20151;-83
2023/02/11 10:13:00;;;;;;;;;;;;;;;;;;;;;
2023/02/11 10:15:52;;;;;;;71.22;29.35;;;8.10;1.00;;;;;;6201777;23;20179;-82
2023/02/11 10:22:45;;;;;;;;;;;;;;;;;;;;;
2023/02/11 10:25:57;;;;;;;59.20;28.58;;;8.20;1.00;;;;;;6132561;23;20174;-83
2023/02/11 10:28:49;;;;;;;68.43;28.08;;;8.20;1.00;;;;;;6129722;23;20194;-83
2023/02/11 10:31:37;;;;;;;57.85;28.50;;;8.20;1.00;;;;;;6155668;23;20158;-82
2023/02/11 10:34:08;;;;;;;70.85;31.63;;;8.20;1.00;;;;;;6313998;22;20489;-82
2023/02/11 10:36:36;;;;;;;66.65;28.45;;;8.20;1.00;;;;;;6327794;22;20179;-83
2023/02/11 10:39:16;;;;;;;75.22;30.92;;;8.20;1.00;;;;;;6352999;22;20148;-82
2023/02/11 10:41:46;;;;;;;60.50;27.50;;;8.30;1.00;;;;;;6333412;22;20177;-82
2023/02/11 10:44:50;;;;;;;73.07;32.05;;;8.30;1.00;;;;;;6360933;22;20135;-82
2023/02/11 10:47:40;;;;;;;56.10;27.55;;;8.30;1.00;;;;;;6343437;22;20162;-83
2023/02/11 10:50:26;;;;;;;61.03;30.70;;;8.30;1.00;;;;;;6314694;22;20208;-81
2023/02/11 10:53:09;;;;;;;75.25;30.75;;;8.40;1.00;;;;;;6332521;22;20240;-83
2023/02/11 10:55:38;;;;;;;61.28;29.00;;;8.40;1.00;;;;;;6330551;22;20205;-80
2023/02/11 10:58:04;;;;;;;57.92;27.67;;;8.50;1.00;;;;;;6357510;22;20182;-82
2023/02/11 11:00:37;;;;;;;62.85;27.90;;;8.50;1.00;;;;;;6359412;22;20151;-82
2023/02/11 11:03:16;;;;;;;58.72;28.48;;;8.50;1.00;;;;;;6360597;22;20150;-82
2023/02/11 11:06:00;;;;;;;59.75;29.27;;;8.60;1.00;;;;;;6359804;22;20170;-82
2023/02/11 11:08:47;;;;;;;60.37;30.77;;;8.60;1.00;;;;;;6360450;22;20139;-83
2023/02/11 11:11:36;;;;;;;56.03;29.20;;;8.60;1.00;;;;;;6361136;22;20381;-82
2023/02/11 11:14:02;;;;;;;65.70;31.55;;;8.70;1.00;;;;;;6355714;22;20373;-82
2023/02/11 11:16:29;;;;;;;65.37;29.47;;;8.70;1.00;;;;;;6332315;22;20514;-83
2023/02/11 11:19:06;;;;;;;56.97;28.48;;;8.70;1.00;;;;;;6359221;22;20373;-84
2023/02/11 11:21:42;;;;;;;60.20;29.70;;;8.80;1.00;;;;;;6359646;22;20150;-82
2023/02/11 11:24:32;;;;;;;61.87;30.77;;;8.90;1.00;;;;;;6361365;22;20135;-83
2023/02/11 11:27:01;;;;;;;71.88;31.63;;;8.90;99.90;;;;;;6362289;22;20354;-83
2023/02/11 11:29:49;;;;;;;;;;;;;;;;;;;;;
2023/02/11 11:32:31;;;;;;;62.50;29.17;;;8.90;99.90;;;;;;6358176;22;20354;-84
2023/02/11 11:35:02;;;;;;;65.07;30.25;;;8.90;99.90;;;;;;6331539;22;20468;-83
2023/02/11 11:37:31;;;;;;;68.35;30.00;;;9.00;99.90;;;;;;6332374;22;20231;-82
2023/02/11 11:40:22;;;;;;;67.43;33.90;;;9.00;99.90;;;;;;6354762;22;20143;-83
2023/02/11 11:43:19;;;;;;;62.28;31.45;;;8.90;99.90;;;;;;6323547;22;20411;-84
2023/02/11 11:45:56;;;;;;;65.80;31.17;;;9.00;99.90;;;;;;6297571;22;20193;-84
2023/02/11 11:48:25;;;;;;;62.20;32.65;;;8.90;99.90;;;;;;6351912;22;20135;-84
2023/02/11 11:51:12;;;;;;;64.55;32.08;;;9.00;99.90;;;;;;6327047;22;20208;-82
2023/02/11 11:53:52;;;;;;;68.73;32.70;;;9.00;99.90;;;;;;6354296;22;20131;-84
2023/02/11 11:56:55;;;;;;;60.45;29.75;;;9.00;99.90;;;;;;6325530;22;20451;-83
2023/02/11 11:59:27;;;;;;;67.03;31.75;;;9.00;99.90;;;;;;6332477;22;20190;-83
2023/02/11 12:02:51;;;;;;;71.43;34.67;;;9.00;99.90;;;;;;6319410;22;20147;-83
2023/02/11 12:05:34;;;;;;;61.90;32.20;;;9.00;99.90;;;;;;6251607;22;20779;-84
2023/02/11 12:09:01;;;;;;;;;;;;;;;;;;;;;
2023/02/11 12:11:54;;;;;;;66.20;32.33;;;9.00;99.90;;;;;;6338442;22;20174;-85
2023/02/11 12:15:13;;;;;;;66.63;32.40;;;9.00;99.90;;;;;;6347828;22;20426;-84
2023/02/11 12:22:13;;;;;;;;;;;;;;;;;;;;;
2023/02/11 12:34:17;;;;;;;76.20;34.07;;;9.00;99.90;;;;;;6256517;22;20180;-84
2023/02/11 12:37:40;;;;;;;77.38;35.95;;;8.90;99.90;;;;;;6343758;22;20451;-84
2023/02/11 12:40:35;;;;;;;83.70;34.13;;;9.00;99.90;;;;;;6252263;23;20157;-84
2023/02/11 12:43:51;;;;;;;76.80;35.72;;;9.00;99.90;;;;;;6252068;23;20156;-84
2023/02/11 12:46:42;;;;;;;82.72;34.53;;;9.00;99.90;;;;;;6131256;23;20532;-84
2023/02/11 12:52:48;;;;;;;93.57;35.67;;;9.10;99.90;;;;;;6249700;23;20656;-84
2023/02/11 12:55:48;;;;;;;;;;;;;;;;;;;;;
2023/02/11 12:58:43;;;;;;;80.53;34.83;;;9.10;99.90;;;;;;6343840;22;20178;-83
2023/02/11 13:05:25;;;;;;;;;;;;;;;;;;;;;
2023/02/11 13:08:21;;;;;;;70.63;34.67;;;9.30;99.90;;;;;;6342960;22;20186;-83
2023/02/11 13:14:31;;;;;;;82.97;36.47;;;9.20;99.90;;;;;;6350218;22;20308;-81
2023/02/11 13:17:32;;;;;;;74.70;32.90;;;9.20;99.90;;;;;;6344695;22;20178;-82
2023/02/11 13:20:32;;;;;;;79.03;34.47;;;9.20;99.90;;;;;;6353213;22;20425;-83
2023/02/11 13:23:37;;;;;;;;;;;;;;;;;;;;;
2023/02/11 13:26:47;;;;;;;74.05;36.60;;;9.20;99.90;;;;;;6358352;22;20166;-82
2023/02/11 13:29:32;;;;;;;80.10;40.38;;;9.20;99.90;;;;;;6343622;22;20436;-81
2023/02/11 13:32:18;;;;;;;77.57;34.67;;;9.30;99.90;;;;;;6359360;22;20195;-81
2023/02/11 13:35:20;;;;;;;72.53;33.97;;;9.40;99.90;;;;;;6381234;22;20368;-82
2023/02/11 13:42:01;;;;;;;;;;;;;;;;;;;;;
2023/02/11 13:44:49;;;;;;;;;;;;;;;;;;;;;
2023/02/11 15:24:50;;;;;;;71.17;31.80;;;9.70;99.90;;;;;;6150261;23;20143;-85
2023/02/11 15:30:35;;;;;;;73.13;32.00;;;9.70;99.90;;;;;;6250805;23;20368;-85
2023/02/11 15:34:05;;;;;;;;;;;;;;;;;;;;;
2023/02/11 17:07:20;;;;;;;72.53;32.60;;;9.20;99.90;;;;;;6310804;22;20450;-83
2023/02/11 17:14:09;;;;;;;66.15;32.55;;;9.20;99.90;;;;;;6218304;23;20162;-83
2023/02/11 17:17:20;;;;;;;72.13;34.15;;;9.20;99.90;;;;;;6289119;22;20268;-83
2023/02/11 17:34:06;;;;;;;;;;;;;;;;;;;;;
2023/02/11 17:37:16;;;;;;;64.23;31.83;;;9.10;99.90;;;;;;6286260;22;20475;-84
2023/02/11 17:44:19;;;;;;;;;;;;;;;;;;;;;
2023/02/11 17:46:56;;;;;;;65.10;33.72;;;8.90;99.90;;;;;;6125665;23;20340;-84
2023/02/11 17:49:40;;;;;;;63.00;32.93;;;8.90;99.90;;;;;;6104123;23;20159;-82
2023/02/11 18:02:57;;;;;;;;;;;;;;;;;;;;;
2023/02/11 18:05:52;;;;;;;61.78;32.28;;;8.90;1.00;;;;;;6241753;23;20264;-83
2023/02/11 18:12:25;;;;;;;;;;;;;;;;;;;;;
2023/02/11 18:23:10;;;;;;;74.07;34.85;;;8.80;1.00;;;;;;6068507;23;20172;-84
2023/02/11 18:42:36;;;;;;;69.72;35.08;;;8.80;1.00;;;;;;6247394;23;20390;-85
2023/02/11 19:03:01;;;;;;;73.17;35.93;;;8.70;1.00;;;;;;6190899;23;20397;-88
2023/02/11 22:53:33;;;;;;;65.57;33.67;;;8.90;1.00;;;;;;6186121;22;20938;-84
